createdAt,value
2018-03-17T00:02:26.043Z,9.24
2018-03-17T00:05:15.554Z,8.81
2018-03-17T00:07:45.696Z,8.56
2018-03-17T00:10:15.718Z,8.77
2018-03-17T00:12:46.021Z,8.89
2018-03-17T00:15:15.610Z,9.00
2018-03-17T00:17:44.896Z,8.98
2018-03-17T00:20:15.431Z,8.78
2018-03-17T00:22:49.627Z,8.79
2018-03-17T00:25:19.785Z,8.71
2018-03-17T00:27:49.878Z,8.62
2018-03-17T00:30:19.888Z,8.80
2018-03-17T00:32:49.749Z,8.86
2018-03-17T00:35:19.304Z,8.76
2018-03-17T00:37:50.310Z,8.79
2018-03-17T00:40:19.570Z,8.43
2018-03-17T00:42:49.583Z,8.55
2018-03-17T00:45:22.126Z,8.69
2018-03-17T00:47:52.512Z,8.64
2018-03-17T00:50:24.005Z,8.37
2018-03-17T00:52:55.306Z,8.39
2018-03-17T00:55:25.375Z,8.36
2018-03-17T00:57:55.740Z,8.44
2018-03-17T01:00:25.024Z,8.36
2018-03-17T01:02:54.841Z,8.56
2018-03-17T01:05:24.542Z,8.43
2018-03-17T01:07:56.029Z,8.52
2018-03-17T01:10:25.320Z,8.64
2018-03-17T01:12:55.693Z,8.63
2018-03-17T01:15:26.699Z,8.54
2018-03-17T01:17:57.866Z,8.56
2018-03-17T01:20:27.388Z,8.63
2018-03-17T01:22:58.438Z,8.77
2018-03-17T01:25:27.737Z,8.84
2018-03-17T01:28:07.251Z,8.55
2018-03-17T01:30:43.105Z,8.04
2018-03-17T01:33:15.643Z,8.09
2018-03-17T01:35:50.716Z,7.93
2018-03-17T01:41:24.809Z,7.86
2018-03-17T01:44:05.930Z,8.21
2018-03-17T01:46:43.365Z,8.81
2018-03-17T01:49:20.902Z,8.79
2018-03-17T01:51:51.447Z,8.62
2018-03-17T01:54:31.463Z,8.42
2018-03-17T01:57:02.323Z,8.38
2018-03-17T01:59:32.551Z,8.58
2018-03-17T02:02:21.827Z,8.11
2018-03-17T02:04:59.886Z,8.18
2018-03-17T02:07:31.568Z,8.34
2018-03-17T02:10:07.043Z,8.17
2018-03-17T02:12:37.408Z,8.45
2018-03-17T02:15:13.258Z,8.37
2018-03-17T02:17:44.376Z,8.31
2018-03-17T02:20:23.024Z,8.61
2018-03-17T02:22:59.364Z,8.63
2018-03-17T02:25:30.208Z,8.47
2018-03-17T02:28:01.183Z,8.48
2018-03-17T02:30:30.567Z,8.51
2018-03-17T02:32:59.871Z,8.41
2018-03-17T02:35:34.940Z,8.18
2018-03-17T02:38:04.382Z,8.30
2018-03-17T02:40:34.422Z,8.46
2018-03-17T02:43:11.788Z,8.52
2018-03-17T02:45:41.456Z,8.12
2018-03-17T02:48:13.228Z,7.97
2018-03-17T02:50:43.538Z,8.19
2018-03-17T02:53:13.025Z,8.50
2018-03-17T02:55:42.324Z,8.07
2018-03-17T02:58:12.765Z,7.80
2018-03-17T03:00:42.289Z,7.96
2018-03-17T03:03:13.858Z,7.66
2018-03-17T03:05:43.531Z,7.96
2018-03-17T03:08:13.499Z,8.09
2018-03-17T03:10:43.131Z,7.87
2018-03-17T03:13:14.126Z,7.64
2018-03-17T03:15:45.457Z,7.74
2018-03-17T03:18:18.392Z,8.02
2018-03-17T03:20:54.306Z,7.77
2018-03-17T03:23:26.885Z,7.69
2018-03-17T03:26:03.149Z,8.06
2018-03-17T03:28:34.986Z,8.37
2018-03-17T03:31:05.337Z,8.23
2018-03-17T03:33:35.528Z,8.24
2018-03-17T03:36:05.955Z,8.40
2018-03-17T03:38:36.884Z,8.52
2018-03-17T03:41:09.640Z,8.71
2018-03-17T03:43:39.601Z,8.78
2018-03-17T03:46:15.340Z,8.68
2018-03-17T03:48:48.783Z,8.60
2018-03-17T03:51:21.163Z,8.76
2018-03-17T03:53:51.236Z,8.48
2018-03-17T03:56:22.375Z,8.53
2018-03-17T03:58:53.055Z,8.39
2018-03-17T04:01:23.403Z,8.37
2018-03-17T04:03:58.837Z,7.78
2018-03-17T04:06:31.707Z,7.88
2018-03-17T04:09:01.769Z,8.01
2018-03-17T04:11:31.857Z,8.42
2018-03-17T04:14:05.258Z,8.51
2018-03-17T04:16:35.926Z,8.65
2018-03-17T04:19:06.924Z,8.84
2018-03-17T04:21:37.187Z,8.62
2018-03-17T04:24:09.586Z,9.07
2018-03-17T04:26:43.731Z,9.46
2018-03-17T04:29:15.146Z,9.23
2018-03-17T04:31:46.221Z,9.21
2018-03-17T04:34:16.586Z,9.33
2018-03-17T04:36:49.509Z,9.26
2018-03-17T04:39:22.270Z,9.22
2018-03-17T04:41:54.208Z,9.24
2018-03-17T04:44:26.947Z,9.80
2018-03-17T04:46:56.653Z,9.47
2018-03-17T04:49:27.552Z,9.61
2018-03-17T04:51:58.447Z,9.50
2018-03-17T04:54:29.487Z,9.36
2018-03-17T04:57:01.550Z,9.68
2018-03-17T04:59:32.827Z,9.56
2018-03-17T05:02:11.895Z,9.89
2018-03-17T05:04:43.942Z,9.57
2018-03-17T05:07:15.323Z,9.92
2018-03-17T05:10:10.507Z,10.02
2018-03-17T05:12:44.187Z,9.62
2018-03-17T05:15:14.314Z,10.12
2018-03-17T05:17:45.875Z,10.23
2018-03-17T05:20:17.698Z,9.94
2018-03-17T05:22:49.184Z,10.16
2018-03-17T05:25:19.623Z,10.04
2018-03-17T05:27:51.588Z,10.04
2018-03-17T05:30:22.151Z,9.87
2018-03-17T05:32:54.115Z,9.83
2018-03-17T05:35:24.404Z,9.88
2018-03-17T05:37:53.710Z,9.88
2018-03-17T05:40:24.011Z,9.85
2018-03-17T05:42:53.285Z,9.93
2018-03-17T05:45:34.927Z,10.07
2018-03-17T05:48:05.011Z,10.10
2018-03-17T05:50:35.292Z,9.91
2018-03-17T05:53:04.596Z,9.84
2018-03-17T05:55:33.883Z,10.06
2018-03-17T05:58:03.517Z,10.16
2018-03-17T06:00:32.779Z,10.24
2018-03-17T06:03:02.081Z,10.64
2018-03-17T06:05:31.491Z,10.65
2018-03-17T06:08:03.459Z,10.73
2018-03-17T06:10:34.193Z,11.01
2018-03-17T06:13:05.341Z,10.71
2018-03-17T06:15:36.558Z,10.43
2018-03-17T06:18:05.839Z,10.65
2018-03-17T06:20:35.766Z,10.77
2018-03-17T06:23:05.071Z,10.82
2018-03-17T06:25:34.353Z,10.96
2018-03-17T06:28:04.471Z,11.12
2018-03-17T06:30:36.151Z,11.14
2018-03-17T06:33:05.434Z,11.12
2018-03-17T06:35:34.789Z,10.69
2018-03-17T06:38:10.203Z,10.94
2018-03-17T06:40:40.250Z,10.67
2018-03-17T06:43:09.539Z,10.90
2018-03-17T06:45:38.964Z,11.05
2018-03-17T06:48:08.411Z,11.01
2018-03-17T06:50:39.294Z,10.87
2018-03-17T06:53:08.686Z,11.38
2018-03-17T06:55:37.994Z,11.28
2018-03-17T06:58:07.343Z,11.54
2018-03-17T07:00:36.969Z,11.41
2018-03-17T07:03:06.937Z,11.35
2018-03-17T07:05:36.367Z,11.54
2018-03-17T07:08:05.816Z,11.53
2018-03-17T07:10:37.518Z,11.46
2018-03-17T07:13:15.391Z,11.61
2018-03-17T07:15:53.514Z,11.79
2018-03-17T07:18:23.907Z,12.06
2018-03-17T07:20:59.012Z,11.82
2018-03-17T07:23:48.996Z,12.09
2018-03-17T07:26:19.171Z,12.14
2018-03-17T07:28:49.632Z,11.80
2018-03-17T07:31:18.948Z,11.72
2018-03-17T07:33:48.709Z,11.79
2018-03-17T07:36:18.056Z,11.88
2018-03-17T07:38:48.551Z,11.90
2018-03-17T07:41:17.861Z,11.64
2018-03-17T07:43:48.018Z,11.38
2018-03-17T07:46:18.155Z,10.73
2018-03-17T07:48:48.418Z,10.92
2018-03-17T07:51:17.781Z,10.81
2018-03-17T07:53:49.031Z,10.86
2018-03-17T07:56:18.348Z,11.46
2018-03-17T07:58:48.967Z,11.64
2018-03-17T08:01:18.358Z,11.74
2018-03-17T08:03:49.532Z,11.77
2018-03-17T08:06:18.802Z,11.94
2018-03-17T08:08:48.543Z,12.22
2018-03-17T08:11:18.049Z,11.94
2018-03-17T08:13:50.664Z,12.11
2018-03-17T08:16:23.353Z,12.09
2018-03-17T08:18:56.109Z,12.05
2018-03-17T08:21:28.190Z,12.38
2018-03-17T08:23:59.906Z,12.41
2018-03-17T08:26:29.532Z,12.36
2018-03-17T08:28:58.867Z,12.08
2018-03-17T08:31:28.294Z,12.03
2018-03-17T08:33:57.636Z,12.08
2018-03-17T08:36:27.048Z,12.35
2018-03-17T08:38:57.257Z,12.23
2018-03-17T08:41:27.453Z,12.34
2018-03-17T08:43:56.808Z,11.98
2018-03-17T08:46:26.374Z,11.43
2018-03-17T08:48:56.491Z,11.73
2018-03-17T08:51:25.810Z,11.98
2018-03-17T08:53:56.240Z,12.23
2018-03-17T08:56:25.535Z,12.43
2018-03-17T08:58:56.256Z,12.54
2018-03-17T09:01:26.482Z,12.22
2018-03-17T09:03:55.809Z,12.03
2018-03-17T09:06:25.704Z,12.05
2018-03-17T09:08:55.783Z,12.15
2018-03-17T09:11:27.592Z,12.23
2018-03-17T09:13:58.800Z,12.00
2018-03-17T09:16:29.729Z,11.30
2018-03-17T09:19:02.181Z,11.56
2018-03-17T09:21:33.105Z,11.89
2018-03-17T09:24:07.102Z,11.95
2018-03-17T09:26:38.295Z,12.04
2018-03-17T09:29:09.271Z,11.40
2018-03-17T09:31:43.299Z,11.15
2018-03-17T09:34:16.131Z,11.36
2018-03-17T09:36:49.894Z,11.40
2018-03-17T09:39:20.767Z,11.64
2018-03-17T09:41:51.034Z,11.84
2018-03-17T09:44:22.356Z,11.85
2018-03-17T09:46:52.130Z,11.32
2018-03-17T09:49:21.420Z,10.84
2018-03-17T09:51:51.479Z,11.17
2018-03-17T09:54:21.304Z,10.99
2018-03-17T09:56:50.629Z,11.13
2018-03-17T09:59:19.901Z,10.97
2018-03-17T10:01:50.128Z,10.97
2018-03-17T10:04:19.454Z,11.48
2018-03-17T10:06:49.406Z,11.77
2018-03-17T10:09:19.552Z,11.93
2018-03-17T10:11:49.574Z,12.09
2018-03-17T10:14:18.858Z,12.19
2018-03-17T10:16:48.508Z,11.83
2018-03-17T10:19:19.309Z,11.93
2018-03-17T10:21:49.350Z,11.97
2018-03-17T10:24:18.671Z,11.99
2018-03-17T10:26:48.613Z,12.17
2018-03-17T10:29:17.944Z,11.75
2018-03-17T10:31:47.342Z,11.60
2018-03-17T10:34:16.686Z,11.73
2018-03-17T10:36:45.975Z,11.25
2018-03-17T10:39:16.783Z,11.43
2018-03-17T10:41:46.163Z,11.97
2018-03-17T10:44:16.598Z,11.56
2018-03-17T10:46:45.926Z,11.02
2018-03-17T10:49:15.833Z,11.08
2018-03-17T10:51:45.178Z,11.62
2018-03-17T10:54:14.487Z,11.23
2018-03-17T10:59:27.918Z,11.04
2018-03-17T11:02:05.099Z,11.39
2018-03-17T11:04:34.387Z,11.08
2018-03-17T11:07:03.711Z,11.64
2018-03-17T11:09:33.006Z,11.82
2018-03-17T11:12:02.368Z,11.67
2018-03-17T11:14:32.294Z,11.45
2018-03-17T11:17:01.912Z,11.53
2018-03-17T11:19:31.244Z,11.50
2018-03-17T11:22:00.547Z,11.37
2018-03-17T11:24:30.655Z,11.60
2018-03-17T11:27:00.002Z,11.74
2018-03-17T11:29:29.643Z,11.97
2018-03-17T11:31:59.732Z,12.10
2018-03-17T11:34:29.037Z,11.85
2018-03-17T11:36:58.399Z,12.13
2018-03-17T11:39:27.715Z,12.03
2018-03-17T11:41:57.081Z,12.41
2018-03-17T11:44:26.660Z,12.51
2018-03-17T11:46:56.826Z,12.34
2018-03-17T11:49:26.596Z,12.35
2018-03-17T11:51:55.986Z,12.45
2018-03-17T11:54:26.208Z,12.40
2018-03-17T11:56:56.329Z,12.15
2018-03-17T11:59:26.894Z,11.73
2018-03-17T12:01:56.196Z,11.72
2018-03-17T12:04:25.500Z,11.67
2018-03-17T12:06:54.835Z,11.97
2018-03-17T12:09:24.094Z,12.29
2018-03-17T12:11:53.495Z,12.68
2018-03-17T12:14:22.835Z,12.49
2018-03-17T12:16:52.128Z,12.28
2018-03-17T12:19:21.712Z,12.29
2018-03-17T12:21:51.315Z,12.19
2018-03-17T12:24:20.675Z,12.01
2018-03-17T12:26:50.531Z,11.96
2018-03-17T12:29:20.245Z,11.82
2018-03-17T12:31:50.156Z,11.56
2018-03-17T12:34:19.472Z,11.70
2018-03-17T12:36:51.913Z,11.60
2018-03-17T12:39:21.278Z,11.73
2018-03-17T12:41:50.788Z,11.59
2018-03-17T12:44:20.117Z,11.63
2018-03-17T12:46:50.676Z,11.93
2018-03-17T12:49:19.995Z,12.01
2018-03-17T12:51:50.391Z,11.80
2018-03-17T12:54:19.744Z,12.19
2018-03-17T12:56:50.008Z,12.45
2018-03-17T12:59:20.766Z,12.57
2018-03-17T13:01:50.957Z,12.65
2018-03-17T13:04:23.532Z,12.86
2018-03-17T13:06:53.255Z,12.63
2018-03-17T13:09:23.535Z,12.54
2018-03-17T13:11:53.286Z,12.66
2018-03-17T13:14:28.059Z,12.56
2018-03-17T13:16:57.384Z,12.66
2018-03-17T13:19:32.671Z,12.86
2018-03-17T13:22:02.026Z,12.53
2018-03-17T13:24:31.360Z,12.42
2018-03-17T13:27:18.487Z,12.67
2018-03-17T13:29:48.582Z,12.20
2018-03-17T13:32:35.597Z,11.70
2018-03-17T13:35:04.916Z,11.61
2018-03-17T13:37:41.512Z,11.82
2018-03-17T13:43:22.952Z,12.37
2018-03-17T13:45:52.440Z,12.52
2018-03-17T13:48:21.756Z,12.55
2018-03-17T13:50:55.992Z,11.22
2018-03-17T13:53:25.429Z,10.75
2018-03-17T13:55:54.751Z,10.44
2018-03-17T14:01:04.700Z,11.00
2018-03-17T14:03:37.495Z,10.69
2018-03-17T14:06:06.819Z,10.43
2018-03-17T14:08:36.261Z,10.20
2018-03-17T14:11:05.661Z,10.73
2018-03-17T14:13:36.557Z,10.92
2018-03-17T14:16:09.279Z,11.09
2018-03-17T14:18:40.682Z,10.87
2018-03-17T14:21:12.214Z,11.08
2018-03-17T14:23:42.631Z,11.28
2018-03-17T14:26:12.823Z,11.36
2018-03-17T14:28:43.197Z,11.47
2018-03-17T14:31:16.915Z,11.79
2018-03-17T14:33:49.000Z,11.93
2018-03-17T14:36:19.126Z,11.58
2018-03-17T14:38:50.939Z,11.33
2018-03-17T14:41:23.205Z,11.54
2018-03-17T14:43:59.447Z,11.95
2018-03-17T14:46:33.553Z,11.95
2018-03-17T14:49:03.924Z,12.15
2018-03-17T14:51:34.053Z,12.09
2018-03-17T14:54:05.708Z,12.03
2018-03-17T14:56:39.359Z,12.02
2018-03-17T14:59:09.953Z,12.19
2018-03-17T15:01:41.009Z,12.17
2018-03-17T15:04:12.302Z,12.12
2018-03-17T15:06:47.867Z,12.14
2018-03-17T15:09:18.949Z,12.06
2018-03-17T15:11:50.158Z,11.95
2018-03-17T15:14:25.265Z,12.28
2018-03-17T15:16:56.597Z,12.06
2018-03-17T15:19:34.554Z,11.82
2018-03-17T15:22:06.287Z,12.07
2018-03-17T15:24:37.657Z,12.11
2018-03-17T15:27:09.540Z,11.88
2018-03-17T15:29:41.467Z,11.82
2018-03-17T15:32:14.052Z,11.66
2018-03-17T15:34:45.386Z,11.89
2018-03-17T15:37:18.954Z,12.23
2018-03-17T15:39:52.306Z,12.31
2018-03-17T15:42:23.654Z,12.26
2018-03-17T15:44:55.014Z,12.19
2018-03-17T15:47:29.044Z,11.88
2018-03-17T15:50:01.171Z,11.94
2018-03-17T15:52:36.944Z,12.26
2018-03-17T15:55:08.655Z,12.28
2018-03-17T15:57:42.007Z,11.96
2018-03-17T16:00:14.494Z,11.48
2018-03-17T16:02:45.919Z,11.08
2018-03-17T16:05:25.703Z,11.31
2018-03-17T16:07:57.559Z,11.56
2018-03-17T16:10:37.058Z,11.64
2018-03-17T16:13:10.238Z,11.61
2018-03-17T16:15:46.043Z,11.63
2018-03-17T16:18:17.954Z,11.70
2018-03-17T16:20:47.716Z,11.81
2018-03-17T16:23:20.597Z,12.01
2018-03-17T16:25:55.397Z,11.74
2018-03-17T16:28:26.821Z,11.45
2018-03-17T16:31:01.380Z,11.61
2018-03-17T16:33:33.195Z,11.59
2018-03-17T16:36:03.566Z,11.33
2018-03-17T16:38:37.055Z,11.51
2018-03-17T16:41:11.033Z,11.27
2018-03-17T16:43:44.056Z,11.40
2018-03-17T16:46:18.612Z,10.79
2018-03-17T16:48:50.341Z,10.57
2018-03-17T16:51:20.479Z,10.73
2018-03-17T16:53:52.748Z,11.08
2018-03-17T16:56:25.186Z,11.15
2018-03-17T17:01:33.151Z,11.37
2018-03-17T17:04:11.138Z,11.42
2018-03-17T17:06:41.647Z,11.38
2018-03-17T17:09:13.552Z,10.99
2018-03-17T17:11:46.899Z,11.23
2018-03-17T17:14:18.088Z,11.65
2018-03-17T17:16:51.418Z,11.50
2018-03-17T17:22:00.649Z,12.00
2018-03-17T17:24:32.429Z,11.93
2018-03-17T17:27:04.789Z,11.70
2018-03-17T17:29:36.943Z,11.38
2018-03-17T17:32:09.645Z,11.65
2018-03-17T17:34:43.222Z,11.96
2018-03-17T17:37:17.103Z,11.99
2018-03-17T17:39:47.583Z,11.78
2018-03-17T17:42:18.434Z,11.55
2018-03-17T17:44:51.173Z,11.67
2018-03-17T17:47:22.945Z,11.38
2018-03-17T17:49:54.397Z,11.33
2018-03-17T17:52:29.235Z,11.01
2018-03-17T17:55:00.008Z,10.97
2018-03-17T17:57:31.997Z,10.92
2018-03-17T18:00:04.323Z,10.55
2018-03-17T18:02:38.665Z,10.37
2018-03-17T18:05:11.793Z,10.62
2018-03-17T18:07:45.427Z,10.96
2018-03-17T18:10:22.185Z,10.56
2018-03-17T18:12:52.599Z,10.55
2018-03-17T18:15:23.457Z,10.47
2018-03-17T18:17:58.575Z,10.23
2018-03-17T18:20:28.737Z,9.79
2018-03-17T18:23:03.317Z,10.06
2018-03-17T18:25:37.085Z,10.20
2018-03-17T18:28:08.742Z,10.39
2018-03-17T18:33:17.579Z,10.86
2018-03-17T18:35:49.499Z,10.66
2018-03-17T18:38:19.717Z,10.71
2018-03-17T18:40:53.708Z,10.53
2018-03-17T18:43:24.675Z,10.58
2018-03-17T18:45:56.781Z,10.48
2018-03-17T18:48:28.372Z,10.60
2018-03-17T18:51:01.566Z,10.48
2018-03-17T18:53:32.529Z,10.26
2018-03-17T18:56:03.176Z,9.96
2018-03-17T18:58:33.867Z,10.09
2018-03-17T19:01:05.402Z,10.28
2018-03-17T19:03:37.532Z,9.91
2018-03-17T19:06:10.251Z,10.10
2018-03-17T19:08:40.403Z,9.70
2018-03-17T19:11:12.217Z,9.68
2018-03-17T19:13:44.178Z,9.55
2018-03-17T19:16:17.178Z,9.61
2018-03-17T19:18:47.873Z,9.67
2018-03-17T19:21:17.768Z,9.52
2018-03-17T19:23:47.957Z,9.41
2018-03-17T19:26:20.300Z,9.59
2018-03-17T19:28:53.975Z,9.46
2018-03-17T19:31:27.065Z,8.98
2018-03-17T19:33:58.964Z,9.27
2018-03-17T19:36:36.552Z,9.30
2018-03-17T19:39:07.663Z,9.60
2018-03-17T19:41:40.160Z,9.39
2018-03-17T19:44:13.968Z,9.37
2018-03-17T19:46:44.591Z,9.37
2018-03-17T19:49:17.115Z,9.47
2018-03-17T19:51:51.000Z,9.25
2018-03-17T19:54:23.163Z,8.97
2018-03-17T19:56:57.029Z,9.23
2018-03-17T19:59:30.486Z,8.84
2018-03-17T20:02:01.990Z,8.96
2018-03-17T20:04:35.554Z,8.89
2018-03-17T20:07:07.426Z,8.77
2018-03-17T20:09:45.070Z,8.85
2018-03-17T20:12:15.615Z,8.46
2018-03-17T20:14:49.764Z,8.45
2018-03-17T20:17:28.225Z,8.83
2018-03-17T20:20:01.132Z,9.01
2018-03-17T20:22:31.152Z,9.44
2018-03-17T20:25:05.480Z,9.46
2018-03-17T20:27:36.819Z,9.49
2018-03-17T20:30:10.943Z,9.39
2018-03-17T20:32:43.006Z,9.35
2018-03-17T20:35:13.912Z,9.25
2018-03-17T20:37:46.282Z,9.21
2018-03-17T20:40:16.326Z,9.17
2018-03-17T20:42:50.899Z,8.99
2018-03-17T20:45:22.285Z,8.92
2018-03-17T20:47:52.995Z,9.03
2018-03-17T20:50:26.719Z,8.88
2018-03-17T20:52:57.373Z,8.61
2018-03-17T20:55:31.175Z,8.84
2018-03-17T20:58:01.286Z,8.75
2018-03-17T21:00:33.118Z,8.72
2018-03-17T21:03:07.495Z,8.55
2018-03-17T21:05:42.780Z,8.76
2018-03-17T21:08:14.013Z,9.06
2018-03-17T21:10:49.615Z,9.11
2018-03-17T21:13:21.808Z,9.08
2018-03-17T21:15:51.842Z,9.07
2018-03-17T21:18:22.973Z,8.97
2018-03-17T21:20:55.950Z,8.59
2018-03-17T21:23:27.875Z,8.49
2018-03-17T21:25:59.071Z,8.36
2018-03-17T21:28:31.257Z,8.20
2018-03-17T21:31:02.571Z,8.00
2018-03-17T21:33:34.072Z,8.08
2018-03-17T21:36:04.622Z,8.23
2018-03-17T21:38:35.571Z,8.31
2018-03-17T21:41:09.504Z,8.24
2018-03-17T21:43:43.500Z,8.14
2018-03-17T21:46:16.167Z,7.49
2018-03-17T21:48:45.974Z,7.31
2018-03-17T21:51:19.478Z,7.43
2018-03-17T21:53:50.637Z,7.45
2018-03-17T21:56:21.596Z,7.76
2018-03-17T21:58:53.490Z,7.88
2018-03-17T22:01:23.843Z,7.88
2018-03-17T22:03:54.180Z,8.34
2018-03-17T22:06:24.695Z,8.08
2018-03-17T22:08:56.411Z,8.07
2018-03-17T22:11:26.545Z,8.01
2018-03-17T22:13:57.309Z,7.77
2018-03-17T22:16:28.677Z,7.73
2018-03-17T22:18:58.837Z,7.41
2018-03-17T22:21:31.838Z,7.56
2018-03-17T22:24:04.155Z,7.69
2018-03-17T22:29:49.555Z,7.51
2018-03-17T22:32:22.056Z,7.83
2018-03-17T22:34:54.177Z,7.98
2018-03-17T22:37:26.362Z,7.81
2018-03-17T22:39:59.488Z,7.81
2018-03-17T22:42:29.346Z,7.94
2018-03-17T22:45:02.683Z,7.94
2018-03-17T22:47:35.583Z,7.96
2018-03-17T22:50:06.951Z,7.95
2018-03-17T22:52:40.915Z,7.96
2018-03-17T22:55:11.927Z,7.93
2018-03-17T22:57:43.437Z,7.80
2018-03-17T23:00:14.516Z,7.91
2018-03-17T23:02:45.686Z,8.21
2018-03-17T23:05:17.445Z,8.25
2018-03-17T23:07:50.430Z,8.33
2018-03-17T23:10:25.312Z,8.72
2018-03-17T23:12:56.128Z,8.62
2018-03-17T23:15:27.029Z,8.78
2018-03-17T23:17:59.058Z,8.63
2018-03-17T23:20:34.144Z,8.55
2018-03-17T23:23:04.120Z,8.68
2018-03-17T23:25:37.690Z,8.64
2018-03-17T23:28:12.356Z,8.25
2018-03-17T23:30:43.673Z,8.43
2018-03-17T23:33:15.321Z,8.26
2018-03-17T23:35:45.683Z,8.23
2018-03-17T23:38:18.057Z,8.21
2018-03-17T23:40:49.656Z,8.11
2018-03-17T23:43:23.480Z,8.00
2018-03-17T23:45:59.591Z,7.85
2018-03-17T23:48:31.540Z,7.69
2018-03-17T23:51:05.788Z,8.02
2018-03-17T23:53:37.223Z,8.25
2018-03-17T23:56:09.987Z,8.26
2018-03-17T23:58:43.901Z,8.06
